RJOZ(METAR)
06/25 08:00
METAR RJOZ 242300Z VRB02KT 9999 FEW030 22/17 Q1015 RMK 1CU030 A2999=
戻る
トップページへ戻る
IMOC Co,.Ltd.